Time;durP1;ratioP1;P1;durP2;ratioP2;P2;SDS_P1;SDS_P2;PMS_P1;PMS_P2;Temp;Humidity;BMP_temperature;BMP_pressure;BME280_temperature;BME280_humidity;BME280_pressure;Samples;Min_cycle;Max_cycle;Signal;HPM_P1;HPM_P2
2023/08/08 00:00:41;;;;;;;2.00;1.90;;;;;;;;;;5041127;28;20764;-87
2023/08/08 00:03:08;;;;;;;2.67;1.80;;;;;;;;;;5039571;28;20634;-86
2023/08/08 00:05:33;;;;;;;2.58;1.80;;;;;;;;;;5042047;28;20098;-83
2023/08/08 00:07:59;;;;;;;2.10;1.90;;;;;;;;;;5039931;28;20486;-84
2023/08/08 00:10:24;;;;;;;2.73;1.87;;;;;;;;;;5041831;28;20029;-91
2023/08/08 00:12:50;;;;;;;2.95;1.98;;;;;;;;;;5041643;28;20764;-84
2023/08/08 00:15:15;;;;;;;4.03;1.85;;;;;;;;;;5040439;28;20446;-85
2023/08/08 00:17:40;;;;;;;2.20;2.00;;;;;;;;;;5041802;28;20094;-86
2023/08/08 00:20:07;;;;;;;2.00;1.73;;;;;;;;;;5040234;28;20031;-95
2023/08/08 00:22:32;;;;;;;3.28;1.75;;;;;;;;;;5042694;28;20640;-91
2023/08/08 00:24:57;;;;;;;1.80;1.52;;;;;;;;;;5040266;28;20509;-91
2023/08/08 00:27:23;;;;;;;2.00;1.48;;;;;;;;;;5043044;28;20021;-93
2023/08/08 00:29:48;;;;;;;1.30;1.20;;;;;;;;;;5044036;28;20112;-96
2023/08/08 00:32:13;;;;;;;1.65;1.50;;;;;;;;;;5044046;28;20100;-93
2023/08/08 00:34:39;;;;;;;3.92;1.40;;;;;;;;;;5044099;28;20049;-87
2023/08/08 00:37:04;;;;;;;2.77;1.33;;;;;;;;;;5056652;28;20013;-93
2023/08/08 00:39:29;;;;;;;1.83;1.60;;;;;;;;;;5054406;28;20288;-88
2023/08/08 00:41:54;;;;;;;2.25;1.50;;;;;;;;;;5040049;28;20045;-85
2023/08/08 00:44:20;;;;;;;1.50;1.40;;;;;;;;;;5042525;28;20029;-93
2023/08/08 00:46:45;;;;;;;2.10;2.00;;;;;;;;;;5041961;28;20287;-88
2023/08/08 00:49:10;;;;;;;2.13;1.90;;;;;;;;;;5042121;28;20404;-87
2023/08/08 00:51:36;;;;;;;3.90;1.73;;;;;;;;;;5042634;28;20020;-84
2023/08/08 00:54:01;;;;;;;3.40;1.80;;;;;;;;;;5041517;28;20111;-86
2023/08/08 00:56:26;;;;;;;1.73;1.63;;;;;;;;;;5045795;28;20829;-86
2023/08/08 00:58:52;;;;;;;2.53;2.30;;;;;;;;;;5048751;28;20060;-83
2023/08/08 01:01:18;;;;;;;2.30;2.10;;;;;;;;;;5040394;28;20140;-83
2023/08/08 01:03:43;;;;;;;3.20;2.22;;;;;;;;;;5038744;28;20071;-84
2023/08/08 01:06:13;;;;;;;2.40;2.17;;;;;;;;;;5039761;28;20028;-83
2023/08/08 01:08:50;;;;;;;2.58;2.38;;;;;;;;;;5039057;28;20017;-85
2023/08/08 01:11:16;;;;;;;3.35;2.55;;;;;;;;;;5039421;28;20021;-84
2023/08/08 01:13:42;;;;;;;2.80;2.60;;;;;;;;;;5039941;28;20021;-85
2023/08/08 01:16:08;;;;;;;4.22;2.90;;;;;;;;;;5038014;28;20060;-87
2023/08/08 01:18:34;;;;;;;3.55;2.47;;;;;;;;;;5043196;28;20580;-88
2023/08/08 01:21:01;;;;;;;6.35;2.60;;;;;;;;;;5039607;28;20047;-86
2023/08/08 01:23:26;;;;;;;3.22;2.42;;;;;;;;;;5040468;28;20016;-86
2023/08/08 01:25:52;;;;;;;3.33;2.60;;;;;;;;;;5043371;28;20056;-85
2023/08/08 01:28:21;;;;;;;2.83;2.50;;;;;;;;;;5044515;28;20023;-84
2023/08/08 01:30:46;;;;;;;3.80;2.40;;;;;;;;;;5045081;28;20035;-85
2023/08/08 01:33:11;;;;;;;2.80;2.20;;;;;;;;;;5042756;28;20025;-83
2023/08/08 01:35:43;;;;;;;1.97;1.87;;;;;;;;;;5043852;28;20422;-85
2023/08/08 01:38:11;;;;;;;2.85;2.40;;;;;;;;;;5041250;28;20271;-86
2023/08/08 01:40:37;;;;;;;2.50;2.30;;;;;;;;;;5042910;28;20075;-85
2023/08/08 01:43:03;;;;;;;3.15;1.95;;;;;;;;;;5041546;28;20051;-82
2023/08/08 01:45:29;;;;;;;1.90;1.75;;;;;;;;;;5043883;28;20033;-87
2023/08/08 01:47:54;;;;;;;1.92;1.58;;;;;;;;;;5043471;28;20043;-87
2023/08/08 01:50:21;;;;;;;2.73;2.00;;;;;;;;;;5043539;28;20307;-86
2023/08/08 01:52:46;;;;;;;2.38;2.13;;;;;;;;;;5044352;28;20255;-88
2023/08/08 01:55:11;;;;;;;2.83;1.67;;;;;;;;;;5042941;28;20433;-86
2023/08/08 01:57:37;;;;;;;2.83;2.05;;;;;;;;;;5044778;28;20264;-85
2023/08/08 02:00:04;;;;;;;2.70;1.80;;;;;;;;;;5043310;28;20036;-87
2023/08/08 02:02:29;;;;;;;3.22;2.20;;;;;;;;;;5045384;28;20290;-85
2023/08/08 02:04:54;;;;;;;2.05;1.95;;;;;;;;;;5043585;28;20048;-85
2023/08/08 02:07:20;;;;;;;2.50;2.30;;;;;;;;;;5043613;28;20033;-88
2023/08/08 02:09:46;;;;;;;2.33;1.50;;;;;;;;;;5058964;28;20028;-85
2023/08/08 02:12:11;;;;;;;1.92;1.83;;;;;;;;;;5043437;28;20023;-83
2023/08/08 02:14:36;;;;;;;2.10;1.87;;;;;;;;;;5043092;28;20501;-86
2023/08/08 02:17:02;;;;;;;2.73;2.00;;;;;;;;;;5043130;28;20366;-91
2023/08/08 02:19:27;;;;;;;3.25;2.20;;;;;;;;;;5044369;28;20271;-87
2023/08/08 02:21:52;;;;;;;1.92;1.83;;;;;;;;;;5043241;28;20067;-92
2023/08/08 02:24:18;;;;;;;3.30;2.20;;;;;;;;;;5044381;28;20029;-89
2023/08/08 02:26:44;;;;;;;2.15;2.05;;;;;;;;;;5045031;28;20787;-87
2023/08/08 02:29:10;;;;;;;2.30;2.15;;;;;;;;;;5044021;28;20045;-83
2023/08/08 02:31:35;;;;;;;2.97;2.00;;;;;;;;;;5044330;28;20055;-91
2023/08/08 02:34:00;;;;;;;2.15;2.05;;;;;;;;;;5043483;28;20029;-90
2023/08/08 02:36:25;;;;;;;2.50;2.30;;;;;;;;;;5044001;28;20025;-85
2023/08/08 02:38:53;;;;;;;2.85;2.58;;;;;;;;;;5042370;28;20259;-85
2023/08/08 02:41:18;;;;;;;4.57;1.92;;;;;;;;;;5043791;28;20203;-86
2023/08/08 02:43:45;;;;;;;1.90;1.80;;;;;;;;;;5043780;28;20096;-88
2023/08/08 02:46:10;;;;;;;4.68;2.17;;;;;;;;;;5043350;28;20029;-87
2023/08/08 02:48:35;;;;;;;2.10;1.97;;;;;;;;;;5042838;28;20028;-84
2023/08/08 02:51:00;;;;;;;2.10;2.00;;;;;;;;;;5040881;28;20286;-93
2023/08/08 02:53:26;;;;;;;2.33;2.00;;;;;;;;;;5044080;28;20540;-91
2023/08/08 02:55:51;;;;;;;2.50;2.13;;;;;;;;;;5041321;28;20033;-85
2023/08/08 02:58:16;;;;;;;4.30;2.07;;;;;;;;;;5049307;28;20289;-86
2023/08/08 03:00:41;;;;;;;2.37;2.17;;;;;;;;;;5050760;28;20704;-81
2023/08/08 03:03:07;;;;;;;3.23;2.30;;;;;;;;;;5043657;28;20283;-84
2023/08/08 03:05:32;;;;;;;2.38;2.10;;;;;;;;;;5042181;28;20390;-83
2023/08/08 03:07:57;;;;;;;3.50;3.30;;;;;;;;;;5043941;28;20021;-89
2023/08/08 03:10:22;;;;;;;3.47;2.50;;;;;;;;;;5043197;28;20025;-87
2023/08/08 03:12:48;;;;;;;2.57;2.37;;;;;;;;;;5041935;28;20029;-85
2023/08/08 03:15:13;;;;;;;2.58;2.47;;;;;;;;;;5043484;28;20270;-94
2023/08/08 03:17:39;;;;;;;2.80;2.60;;;;;;;;;;5041828;28;20588;-86
2023/08/08 03:20:06;;;;;;;3.72;3.03;;;;;;;;;;5043745;28;20024;-86
2023/08/08 03:22:31;;;;;;;3.10;2.80;;;;;;;;;;5041356;28;20043;-85
2023/08/08 03:24:56;;;;;;;3.08;2.85;;;;;;;;;;5043136;28;20111;-84
2023/08/08 03:27:22;;;;;;;3.20;2.60;;;;;;;;;;5041364;28;20540;-82
2023/08/08 03:29:47;;;;;;;3.08;2.83;;;;;;;;;;5041835;28;20071;-85
2023/08/08 03:32:12;;;;;;;3.60;3.00;;;;;;;;;;5041389;28;20650;-85
2023/08/08 03:34:37;;;;;;;3.20;2.80;;;;;;;;;;5039988;28;20255;-85
2023/08/08 03:37:03;;;;;;;3.55;2.80;;;;;;;;;;5042877;28;20514;-85
2023/08/08 03:39:28;;;;;;;3.40;3.17;;;;;;;;;;5040687;28;20052;-85
2023/08/08 03:41:53;;;;;;;3.07;2.87;;;;;;;;;;5041640;28;20059;-86
2023/08/08 03:44:18;;;;;;;3.20;2.73;;;;;;;;;;5040418;28;20291;-86
2023/08/08 03:46:44;;;;;;;3.57;3.37;;;;;;;;;;5041031;28;20797;-86
2023/08/08 03:49:09;;;;;;;3.43;3.23;;;;;;;;;;5040378;28;20267;-82
2023/08/08 03:51:34;;;;;;;3.47;3.22;;;;;;;;;;5040812;28;20347;-87
2023/08/08 03:54:00;;;;;;;5.07;3.50;;;;;;;;;;5042172;28;20363;-90
2023/08/08 03:56:25;;;;;;;5.10;3.90;;;;;;;;;;5040897;28;20025;-84
2023/08/08 03:58:50;;;;;;;3.58;3.38;;;;;;;;;;5041657;28;20305;-86
2023/08/08 04:01:15;;;;;;;3.67;3.22;;;;;;;;;;5038452;28;20048;-80
2023/08/08 04:03:41;;;;;;;4.27;3.90;;;;;;;;;;5040813;28;20115;-79
2023/08/08 04:06:06;;;;;;;4.70;4.40;;;;;;;;;;5040100;28;20291;-85
2023/08/08 04:08:32;;;;;;;4.40;4.00;;;;;;;;;;5041649;28;20303;-86
2023/08/08 04:10:58;;;;;;;4.32;3.65;;;;;;;;;;5040558;28;20044;-85
2023/08/08 04:13:23;;;;;;;4.22;3.92;;;;;;;;;;5039346;28;20457;-85
2023/08/08 04:15:48;;;;;;;4.90;4.50;;;;;;;;;;5041206;28;20024;-84
2023/08/08 04:18:13;;;;;;;7.68;5.05;;;;;;;;;;5039470;28;20838;-86
2023/08/08 04:20:39;;;;;;;4.28;3.97;;;;;;;;;;5041118;28;20103;-85
2023/08/08 04:23:04;;;;;;;5.72;4.43;;;;;;;;;;5039520;28;20458;-85
2023/08/08 04:25:29;;;;;;;4.23;3.93;;;;;;;;;;5040607;28;20025;-83
2023/08/08 04:27:55;;;;;;;5.07;4.70;;;;;;;;;;5039170;28;20298;-84
2023/08/08 04:30:20;;;;;;;4.18;3.90;;;;;;;;;;5040588;28;20649;-83
2023/08/08 04:32:45;;;;;;;4.70;4.30;;;;;;;;;;5040432;28;20021;-84
2023/08/08 04:35:11;;;;;;;5.05;4.63;;;;;;;;;;5039308;28;20283;-84
2023/08/08 04:37:36;;;;;;;4.25;3.95;;;;;;;;;;5039784;28;20521;-83
2023/08/08 04:40:01;;;;;;;4.40;4.10;;;;;;;;;;5039390;28;20013;-84
2023/08/08 04:42:26;;;;;;;3.88;3.60;;;;;;;;;;5040617;28;20894;-85
2023/08/08 04:44:52;;;;;;;4.83;4.23;;;;;;;;;;5038746;28;20036;-85
2023/08/08 04:47:17;;;;;;;5.03;4.55;;;;;;;;;;5041228;28;20354;-86
2023/08/08 04:49:42;;;;;;;4.93;4.53;;;;;;;;;;5038825;28;20104;-86
2023/08/08 04:52:08;;;;;;;4.97;4.60;;;;;;;;;;5040141;28;20271;-83
2023/08/08 04:54:33;;;;;;;5.20;4.90;;;;;;;;;;5040463;28;20021;-85
2023/08/08 04:56:58;;;;;;;5.00;4.47;;;;;;;;;;5039171;28;20032;-83
2023/08/08 04:59:23;;;;;;;5.03;4.50;;;;;;;;;;5043931;28;20772;-84
2023/08/08 05:01:48;;;;;;;4.27;4.07;;;;;;;;;;5042968;28;20881;-84
2023/08/08 05:04:14;;;;;;;5.73;5.20;;;;;;;;;;5044864;28;20282;-85
2023/08/08 05:06:39;;;;;;;6.87;4.93;;;;;;;;;;5043324;28;20299;-86
2023/08/08 05:09:04;;;;;;;6.10;4.50;;;;;;;;;;5044334;28;20796;-85
2023/08/08 05:11:30;;;;;;;5.25;4.63;;;;;;;;;;5044081;28;20024;-86
2023/08/08 05:13:55;;;;;;;5.28;4.97;;;;;;;;;;5043322;28;20032;-83
2023/08/08 05:16:20;;;;;;;5.17;4.87;;;;;;;;;;5043963;28;20033;-85
2023/08/08 05:18:47;;;;;;;3.72;3.53;;;;;;;;;;5042691;28;20698;-87
2023/08/08 05:21:12;;;;;;;4.07;3.00;;;;;;;;;;5044075;28;20028;-85
2023/08/08 05:23:37;;;;;;;2.67;2.47;;;;;;;;;;5043559;28;20020;-84
2023/08/08 05:26:03;;;;;;;3.78;3.45;;;;;;;;;;5044273;28;20043;-85
2023/08/08 05:28:28;;;;;;;3.28;3.08;;;;;;;;;;5042748;28;20016;-82
2023/08/08 05:30:54;;;;;;;4.00;3.70;;;;;;;;;;5042770;28;20083;-80
2023/08/08 05:33:19;;;;;;;5.03;2.67;;;;;;;;;;5043878;28;20765;-89
2023/08/08 05:35:44;;;;;;;3.27;2.97;;;;;;;;;;5043273;28;20422;-85
2023/08/08 05:38:10;;;;;;;2.30;2.20;;;;;;;;;;5042002;28;20286;-79
2023/08/08 05:40:36;;;;;;;2.33;2.13;;;;;;;;;;5026990;28;20264;-82
2023/08/08 05:43:01;;;;;;;2.47;2.22;;;;;;;;;;5023951;28;20530;-80
2023/08/08 05:45:26;;;;;;;4.10;2.45;;;;;;;;;;5022587;28;20045;-84
2023/08/08 05:47:52;;;;;;;2.70;2.50;;;;;;;;;;5035437;28;20091;-86
2023/08/08 05:50:17;;;;;;;1.90;1.80;;;;;;;;;;5042087;28;20096;-85
2023/08/08 05:52:42;;;;;;;2.22;1.90;;;;;;;;;;5028360;28;20790;-80
2023/08/08 05:55:08;;;;;;;2.70;1.90;;;;;;;;;;5037165;28;20086;-83
2023/08/08 05:57:33;;;;;;;2.30;2.20;;;;;;;;;;5032525;28;20521;-78
2023/08/08 05:59:58;;;;;;;2.40;2.20;;;;;;;;;;5037527;28;20415;-83
2023/08/08 06:02:24;;;;;;;2.90;2.70;;;;;;;;;;5034314;28;20256;-85
2023/08/08 06:04:49;;;;;;;3.43;2.80;;;;;;;;;;5032790;28;20017;-86
2023/08/08 06:07:14;;;;;;;3.47;3.27;;;;;;;;;;5041112;28;20063;-83
2023/08/08 06:09:39;;;;;;;3.85;3.58;;;;;;;;;;5040938;28;20017;-83
2023/08/08 06:12:05;;;;;;;3.30;2.83;;;;;;;;;;5031613;28;20072;-83
2023/08/08 06:14:30;;;;;;;3.33;3.13;;;;;;;;;;5034154;28;20208;-84
2023/08/08 06:16:56;;;;;;;7.97;3.78;;;;;;;;;;5043039;28;20036;-79
2023/08/08 06:19:21;;;;;;;3.35;3.08;;;;;;;;;;5039265;28;20013;-83
2023/08/08 06:21:46;;;;;;;4.07;3.78;;;;;;;;;;5042217;28;20040;-81
2023/08/08 06:24:12;;;;;;;4.43;4.00;;;;;;;;;;5041312;28;20078;-82
2023/08/08 06:26:37;;;;;;;4.03;3.73;;;;;;;;;;5041639;28;20146;-83
2023/08/08 06:29:02;;;;;;;5.03;3.80;;;;;;;;;;5039392;28;20279;-81
2023/08/08 06:31:28;;;;;;;5.57;3.15;;;;;;;;;;5041803;28;20047;-81
2023/08/08 06:33:53;;;;;;;3.10;2.80;;;;;;;;;;5040928;28;20391;-83
2023/08/08 06:36:18;;;;;;;4.80;2.55;;;;;;;;;;5040537;28;20509;-80
2023/08/08 06:38:44;;;;;;;2.33;2.23;;;;;;;;;;5038676;28;20010;-81
2023/08/08 06:41:09;;;;;;;2.30;2.10;;;;;;;;;;5030868;28;20374;-80
2023/08/08 06:43:34;;;;;;;1.83;1.73;;;;;;;;;;5029344;28;20071;-84
2023/08/08 06:46:01;;;;;;;2.07;1.57;;;;;;;;;;5029292;28;20300;-81
2023/08/08 06:48:26;;;;;;;2.45;1.58;;;;;;;;;;5042110;28;20083;-82
2023/08/08 06:50:51;;;;;;;1.75;1.30;;;;;;;;;;5041834;28;20021;-82
2023/08/08 06:53:17;;;;;;;1.25;1.00;;;;;;;;;;5041701;28;20021;-83
2023/08/08 06:55:42;;;;;;;1.38;1.27;;;;;;;;;;5042478;28;20020;-82
2023/08/08 06:58:08;;;;;;;1.33;0.90;;;;;;;;;;5040988;28;20138;-81
2023/08/08 07:00:33;;;;;;;0.83;0.83;;;;;;;;;;5041787;28;20437;-80
2023/08/08 07:02:58;;;;;;;1.03;0.90;;;;;;;;;;5035460;28;20090;-81
2023/08/08 07:05:23;;;;;;;0.50;0.50;;;;;;;;;;5034367;28;20377;-81
2023/08/08 07:07:49;;;;;;;0.97;0.80;;;;;;;;;;5022774;28;20044;-88
2023/08/08 07:10:15;;;;;;;0.85;0.65;;;;;;;;;;5035268;28;20306;-80
2023/08/08 07:12:41;;;;;;;1.15;0.70;;;;;;;;;;5034251;28;20448;-79
2023/08/08 07:15:07;;;;;;;0.87;0.80;;;;;;;;;;5033087;28;20013;-81
2023/08/08 07:17:32;;;;;;;1.58;1.00;;;;;;;;;;5042096;28;20317;-80
2023/08/08 07:19:57;;;;;;;2.00;0.93;;;;;;;;;;5040671;28;20028;-78
2023/08/08 07:22:23;;;;;;;5.83;0.70;;;;;;;;;;5040561;28;20826;-82
2023/08/08 07:24:48;;;;;;;0.75;0.75;;;;;;;;;;5039141;28;20346;-81
2023/08/08 07:27:13;;;;;;;0.77;0.70;;;;;;;;;;5042940;28;20024;-85
2023/08/08 07:29:38;;;;;;;0.98;0.82;;;;;;;;;;5041969;28;20056;-84
2023/08/08 07:32:04;;;;;;;1.10;1.10;;;;;;;;;;5043777;28;20119;-84
2023/08/08 07:34:30;;;;;;;1.08;1.02;;;;;;;;;;5042020;28;20084;-83
2023/08/08 07:36:55;;;;;;;1.92;1.25;;;;;;;;;;5041681;28;20079;-85
2023/08/08 07:39:21;;;;;;;1.17;1.17;;;;;;;;;;5043183;28;20074;-85
2023/08/08 07:41:46;;;;;;;1.90;1.17;;;;;;;;;;5041362;28;20102;-84
2023/08/08 07:44:11;;;;;;;0.90;0.90;;;;;;;;;;5043099;28;20043;-87
2023/08/08 07:46:37;;;;;;;1.00;1.00;;;;;;;;;;5041444;28;20295;-82
2023/08/08 07:49:03;;;;;;;1.20;0.88;;;;;;;;;;5043769;28;20394;-88
2023/08/08 07:51:29;;;;;;;1.13;1.10;;;;;;;;;;5043130;28;20029;-86
2023/08/08 07:53:54;;;;;;;2.20;1.20;;;;;;;;;;5043205;28;20036;-88
2023/08/08 07:56:20;;;;;;;4.87;1.40;;;;;;;;;;5041577;28;20052;-83
2023/08/08 07:58:45;;;;;;;1.50;1.40;;;;;;;;;;5038626;28;20074;-86
2023/08/08 08:01:11;;;;;;;5.97;1.60;;;;;;;;;;5038592;28;20632;-86
2023/08/08 08:03:37;;;;;;;1.60;1.48;;;;;;;;;;5042631;28;20021;-82
2023/08/08 08:06:02;;;;;;;1.45;1.30;;;;;;;;;;5032384;28;20044;-83
2023/08/08 08:08:27;;;;;;;1.38;1.20;;;;;;;;;;5036192;28;20532;-85
2023/08/08 08:10:53;;;;;;;1.40;1.30;;;;;;;;;;5033502;28;20055;-87
2023/08/08 08:13:18;;;;;;;2.00;1.30;;;;;;;;;;5040452;28;20025;-90
2023/08/08 08:15:44;;;;;;;2.33;1.40;;;;;;;;;;5042709;28;20020;-80
2023/08/08 08:18:11;;;;;;;1.00;1.00;;;;;;;;;;5041967;28;20114;-85
2023/08/08 08:20:36;;;;;;;1.40;1.30;;;;;;;;;;5041422;28;20299;-84
2023/08/08 08:23:01;;;;;;;1.58;1.30;;;;;;;;;;5043083;28;20737;-82
2023/08/08 08:25:27;;;;;;;1.47;1.37;;;;;;;;;;5042609;28;20045;-93
2023/08/08 08:27:52;;;;;;;1.50;1.40;;;;;;;;;;5043980;28;20842;-83
2023/08/08 08:30:18;;;;;;;2.47;1.57;;;;;;;;;;5043055;28;20021;-86
2023/08/08 08:32:43;;;;;;;5.38;1.60;;;;;;;;;;5043756;28;20273;-83
2023/08/08 08:35:09;;;;;;;1.95;1.20;;;;;;;;;;5047764;28;20464;-85
2023/08/08 08:37:34;;;;;;;1.40;1.30;;;;;;;;;;5047247;28;20470;-86
2023/08/08 08:40:00;;;;;;;2.40;1.23;;;;;;;;;;5047805;28;20396;-93
2023/08/08 08:42:28;;;;;;;1.38;1.10;;;;;;;;;;5045723;28;20422;-87
2023/08/08 08:44:56;;;;;;;2.10;1.30;;;;;;;;;;5046269;28;20027;-85
2023/08/08 08:47:22;;;;;;;2.50;1.23;;;;;;;;;;5047302;28;20017;-84
2023/08/08 08:49:48;;;;;;;1.63;1.30;;;;;;;;;;5046905;28;20029;-86
2023/08/08 08:52:13;;;;;;;1.70;1.23;;;;;;;;;;5061536;28;20018;-87
2023/08/08 08:54:38;;;;;;;2.80;1.20;;;;;;;;;;5048107;28;20013;-85
2023/08/08 08:57:04;;;;;;;1.53;1.30;;;;;;;;;;5041621;28;20025;-86
2023/08/08 08:59:29;;;;;;;1.40;1.30;;;;;;;;;;5034099;28;20838;-86
2023/08/08 09:01:55;;;;;;;1.75;0.90;;;;;;;;;;5044817;28;20029;-88
2023/08/08 09:04:21;;;;;;;1.42;1.10;;;;;;;;;;5033293;28;20478;-82
2023/08/08 09:06:46;;;;;;;2.95;1.48;;;;;;;;;;5046022;28;20500;-89
2023/08/08 09:09:13;;;;;;;1.38;1.27;;;;;;;;;;5044782;28;20060;-83
2023/08/08 09:11:39;;;;;;;2.70;1.10;;;;;;;;;;5045217;28;20104;-84
2023/08/08 09:14:27;;;;;;;1.48;1.38;;;;;;;;;;5044616;28;20024;-79
2023/08/08 09:16:56;;;;;;;2.05;1.05;;;;;;;;;;5033815;28;20513;-87
2023/08/08 09:19:22;;;;;;;1.17;1.10;;;;;;;;;;5034364;28;20082;-85
2023/08/08 09:21:47;;;;;;;2.13;1.00;;;;;;;;;;5044452;28;20024;-86
2023/08/08 09:24:13;;;;;;;1.90;0.90;;;;;;;;;;5037871;28;20102;-90
2023/08/08 09:26:42;;;;;;;1.20;0.95;;;;;;;;;;5041217;28;20133;-90
2023/08/08 09:29:07;;;;;;;0.98;0.98;;;;;;;;;;5034820;28;20485;-87
2023/08/08 09:31:34;;;;;;;0.90;0.90;;;;;;;;;;5042435;28;20040;-86
2023/08/08 09:34:00;;;;;;;1.13;1.00;;;;;;;;;;5032762;28;20034;-88
2023/08/08 09:36:26;;;;;;;1.58;1.15;;;;;;;;;;5033948;28;20021;-86
2023/08/08 09:38:51;;;;;;;1.02;1.02;;;;;;;;;;5037311;28;20109;-87
2023/08/08 09:41:17;;;;;;;1.00;0.80;;;;;;;;;;5044697;28;20106;-88
2023/08/08 09:43:45;;;;;;;1.13;1.03;;;;;;;;;;5036444;28;20028;-82
2023/08/08 09:46:10;;;;;;;1.60;1.00;;;;;;;;;;5031399;28;20296;-82
2023/08/08 09:48:38;;;;;;;1.20;0.90;;;;;;;;;;5025295;28;20032;-81
2023/08/08 09:51:04;;;;;;;1.02;0.93;;;;;;;;;;5034218;28;20024;-81
2023/08/08 09:53:30;;;;;;;1.23;1.00;;;;;;;;;;5032708;28;20020;-86
2023/08/08 09:55:56;;;;;;;1.05;0.90;;;;;;;;;;5035104;28;20033;-90
2023/08/08 09:58:22;;;;;;;3.10;1.20;;;;;;;;;;5045809;28;20025;-86
2023/08/08 10:00:49;;;;;;;1.98;1.45;;;;;;;;;;5044558;28;20023;-87
2023/08/08 10:03:14;;;;;;;3.08;1.33;;;;;;;;;;5047015;28;20036;-83
2023/08/08 10:05:40;;;;;;;1.23;1.15;;;;;;;;;;5045663;28;20029;-89
2023/08/08 10:08:06;;;;;;;0.93;0.88;;;;;;;;;;5045708;28;20623;-88
2023/08/08 10:10:31;;;;;;;1.50;1.23;;;;;;;;;;5045723;28;20029;-84
2023/08/08 10:12:56;;;;;;;2.45;1.40;;;;;;;;;;5045547;28;20529;-89
2023/08/08 10:15:25;;;;;;;1.30;1.20;;;;;;;;;;5045105;28;20477;-86
2023/08/08 10:17:53;;;;;;;1.48;1.17;;;;;;;;;;5044566;28;20021;-88
2023/08/08 10:20:18;;;;;;;1.25;1.15;;;;;;;;;;5044776;28;20033;-94
2023/08/08 10:22:45;;;;;;;3.22;1.20;;;;;;;;;;5045756;28;20021;-93
2023/08/08 10:25:23;;;;;;;1.33;1.10;;;;;;;;;;5046321;28;20397;-85
2023/08/08 10:27:48;;;;;;;2.13;1.00;;;;;;;;;;5044927;28;20024;-89
2023/08/08 10:30:14;;;;;;;1.52;1.15;;;;;;;;;;5051039;28;20370;-89
2023/08/08 10:32:40;;;;;;;3.90;1.20;;;;;;;;;;5050240;28;20028;-87
2023/08/08 10:35:06;;;;;;;5.07;1.00;;;;;;;;;;5044376;28;20033;-93
2023/08/08 10:37:31;;;;;;;1.40;1.30;;;;;;;;;;5045194;28;20028;-82
2023/08/08 10:40:00;;;;;;;1.63;1.23;;;;;;;;;;5043584;28;20108;-91
2023/08/08 10:42:25;;;;;;;;;;;;;;;;;;5050891;28;20382;-85
2023/08/08 10:44:54;;;;;;;2.70;1.17;;;;;;;;;;5053917;28;20404;-89
2023/08/08 10:47:30;;;;;;;3.15;1.00;;;;;;;;;;5048965;28;20024;-85
2023/08/08 10:49:58;;;;;;;2.80;1.08;;;;;;;;;;5053976;28;20029;-85
2023/08/08 10:52:24;;;;;;;4.40;1.30;;;;;;;;;;5043524;28;20032;-88
2023/08/08 10:54:53;;;;;;;1.17;1.00;;;;;;;;;;5031846;28;20418;-91
2023/08/08 10:57:19;;;;;;;1.73;1.40;;;;;;;;;;5047720;28;20381;-94
2023/08/08 10:59:44;;;;;;;1.73;1.13;;;;;;;;;;5045457;28;20111;-87
2023/08/08 11:02:09;;;;;;;2.08;1.30;;;;;;;;;;5052224;28;20091;-83
2023/08/08 11:04:35;;;;;;;1.40;1.27;;;;;;;;;;5045546;28;20021;-85
2023/08/08 11:07:01;;;;;;;1.85;1.27;;;;;;;;;;5041763;28;20470;-85
2023/08/08 11:09:26;;;;;;;1.42;1.20;;;;;;;;;;5034358;28;20130;-80
2023/08/08 11:11:52;;;;;;;2.38;1.20;;;;;;;;;;5043824;28;20032;-90
2023/08/08 11:14:18;;;;;;;3.53;1.27;;;;;;;;;;5042634;28;20028;-90
2023/08/08 11:16:44;;;;;;;1.40;1.30;;;;;;;;;;5044109;28;20469;-84
2023/08/08 11:19:10;;;;;;;3.40;1.40;;;;;;;;;;5041015;28;20025;-83
2023/08/08 11:21:36;;;;;;;1.50;1.40;;;;;;;;;;5043526;28;20028;-80
2023/08/08 11:24:03;;;;;;;2.65;1.48;;;;;;;;;;5042806;28;20146;-85
2023/08/08 11:26:31;;;;;;;2.58;1.50;;;;;;;;;;5043844;28;20041;-84
2023/08/08 11:28:57;;;;;;;2.30;1.40;;;;;;;;;;5042707;28;20553;-85
2023/08/08 11:31:23;;;;;;;1.65;1.10;;;;;;;;;;5042148;28;20127;-83
2023/08/08 11:33:48;;;;;;;1.40;1.30;;;;;;;;;;5042066;28;20082;-85
2023/08/08 11:36:14;;;;;;;1.65;1.50;;;;;;;;;;5041181;28;20598;-86
2023/08/08 11:38:40;;;;;;;3.28;1.55;;;;;;;;;;5040221;28;20576;-81
2023/08/08 11:41:06;;;;;;;2.13;1.27;;;;;;;;;;5040741;28;20025;-84
2023/08/08 11:43:31;;;;;;;1.70;1.60;;;;;;;;;;5038457;28;20867;-89
2023/08/08 11:45:59;;;;;;;1.20;1.10;;;;;;;;;;5037690;28;20088;-82
2023/08/08 11:48:25;;;;;;;1.50;1.40;;;;;;;;;;5028884;28;20032;-82
2023/08/08 11:50:52;;;;;;;1.52;1.42;;;;;;;;;;5032641;28;20975;-80
2023/08/08 11:53:18;;;;;;;1.42;1.25;;;;;;;;;;5034123;28;20029;-85
2023/08/08 11:55:44;;;;;;;9.38;1.60;;;;;;;;;;5032202;28;20028;-83
2023/08/08 11:58:12;;;;;;;4.85;1.40;;;;;;;;;;5034374;28;20386;-86
2023/08/08 12:00:37;;;;;;;1.20;1.10;;;;;;;;;;5043011;28;20166;-82
2023/08/08 12:03:04;;;;;;;1.33;1.23;;;;;;;;;;5040280;28;20147;-82
2023/08/08 12:05:29;;;;;;;1.40;1.30;;;;;;;;;;5034728;28;20509;-86
2023/08/08 12:07:55;;;;;;;2.67;1.30;;;;;;;;;;5026052;28;20029;-83
2023/08/08 12:10:21;;;;;;;1.17;1.17;;;;;;;;;;5039152;28;20020;-90
2023/08/08 12:12:51;;;;;;;2.70;1.02;;;;;;;;;;5040364;28;20522;-82
2023/08/08 12:15:17;;;;;;;1.30;1.20;;;;;;;;;;5038786;28;20032;-81
2023/08/08 12:17:42;;;;;;;1.37;0.90;;;;;;;;;;5037770;28;20017;-82
2023/08/08 12:20:09;;;;;;;2.15;1.13;;;;;;;;;;5035551;28;20255;-83
2023/08/08 12:22:35;;;;;;;1.75;1.30;;;;;;;;;;5041923;28;20029;-84
2023/08/08 12:25:00;;;;;;;1.92;1.25;;;;;;;;;;5041000;28;20390;-85
2023/08/08 12:27:25;;;;;;;2.90;1.20;;;;;;;;;;5041660;28;20021;-83
2023/08/08 12:29:51;;;;;;;6.23;1.30;;;;;;;;;;5041238;28;20025;-82
2023/08/08 12:32:19;;;;;;;1.17;0.98;;;;;;;;;;5041175;28;20615;-84
2023/08/08 12:34:44;;;;;;;1.10;1.10;;;;;;;;;;5041283;28;20009;-92
2023/08/08 12:37:10;;;;;;;3.30;1.20;;;;;;;;;;5041429;28;20023;-89
2023/08/08 12:39:35;;;;;;;1.80;1.52;;;;;;;;;;5043398;28;20628;-85
2023/08/08 12:42:00;;;;;;;2.30;1.30;;;;;;;;;;5039845;28;20191;-84
2023/08/08 12:44:25;;;;;;;2.50;1.27;;;;;;;;;;5041312;28;20021;-84
2023/08/08 12:46:51;;;;;;;1.20;1.10;;;;;;;;;;5040202;28;20295;-88
2023/08/08 12:49:16;;;;;;;1.35;1.10;;;;;;;;;;5040989;28;20765;-84
2023/08/08 12:51:41;;;;;;;1.33;1.23;;;;;;;;;;5041364;28;20482;-82
2023/08/08 12:54:06;;;;;;;1.20;1.10;;;;;;;;;;5041419;28;20267;-85
2023/08/08 12:56:32;;;;;;;2.28;1.25;;;;;;;;;;5042632;28;20039;-86
2023/08/08 12:58:57;;;;;;;1.23;1.23;;;;;;;;;;5041629;28;20017;-88
2023/08/08 13:01:24;;;;;;;1.50;1.40;;;;;;;;;;5042130;28;20029;-83
2023/08/08 13:03:49;;;;;;;1.30;1.10;;;;;;;;;;5041152;28;20025;-88
2023/08/08 13:06:15;;;;;;;2.15;1.15;;;;;;;;;;5042010;28;20107;-82
2023/08/08 13:08:40;;;;;;;1.13;1.03;;;;;;;;;;5040517;28;20017;-82
2023/08/08 13:11:05;;;;;;;0.90;0.90;;;;;;;;;;5040697;28;20078;-82
2023/08/08 13:13:31;;;;;;;1.53;1.10;;;;;;;;;;5040939;28;20023;-85
2023/08/08 13:15:56;;;;;;;2.20;1.05;;;;;;;;;;5040417;28;20309;-91
2023/08/08 13:18:21;;;;;;;1.13;0.87;;;;;;;;;;5040588;28;20024;-85
2023/08/08 13:20:47;;;;;;;2.75;1.10;;;;;;;;;;5039052;28;20295;-84
2023/08/08 13:23:12;;;;;;;1.30;1.02;;;;;;;;;;5040742;28;20366;-83
2023/08/08 13:25:37;;;;;;;0.80;0.80;;;;;;;;;;5044066;28;20043;-81
2023/08/08 13:28:03;;;;;;;0.95;0.80;;;;;;;;;;5045149;28;20032;-88
2023/08/08 13:30:28;;;;;;;1.10;1.10;;;;;;;;;;5045626;28;20100;-82
2023/08/08 13:32:54;;;;;;;3.40;1.17;;;;;;;;;;5044153;28;20049;-86
2023/08/08 13:35:19;;;;;;;1.27;1.17;;;;;;;;;;5045291;28;20021;-89
2023/08/08 13:37:45;;;;;;;2.15;0.85;;;;;;;;;;5044296;28;20082;-86
2023/08/08 13:40:11;;;;;;;1.45;1.10;;;;;;;;;;5045183;28;20013;-89
2023/08/08 13:42:36;;;;;;;0.90;0.82;;;;;;;;;;5050147;28;20131;-87
2023/08/08 13:45:01;;;;;;;1.10;0.87;;;;;;;;;;5052614;28;20029;-82
2023/08/08 13:47:27;;;;;;;2.95;1.10;;;;;;;;;;5044061;28;20491;-84
2023/08/08 13:49:53;;;;;;;2.08;1.00;;;;;;;;;;5045039;28;20017;-85
2023/08/08 13:52:18;;;;;;;0.70;0.70;;;;;;;;;;5044500;28;20017;-83
2023/08/08 13:54:43;;;;;;;1.27;1.17;;;;;;;;;;5043631;28;20062;-82
2023/08/08 13:57:09;;;;;;;1.30;1.00;;;;;;;;;;5044857;28;20029;-90
2023/08/08 13:59:34;;;;;;;1.17;0.97;;;;;;;;;;5042150;28;20830;-86
2023/08/08 14:02:00;;;;;;;1.42;1.00;;;;;;;;;;5031761;28;20474;-85
2023/08/08 14:04:25;;;;;;;1.90;0.90;;;;;;;;;;5042108;28;20031;-87
2023/08/08 14:06:50;;;;;;;1.30;0.90;;;;;;;;;;5044234;28;20021;-92
2023/08/08 14:09:16;;;;;;;1.13;1.03;;;;;;;;;;5044193;28;20095;-86
2023/08/08 14:11:41;;;;;;;1.90;0.80;;;;;;;;;;5044646;28;20554;-83
2023/08/08 14:14:06;;;;;;;1.05;0.88;;;;;;;;;;5044666;28;20255;-87
2023/08/08 14:16:32;;;;;;;1.13;0.80;;;;;;;;;;5033598;28;20460;-86
2023/08/08 14:18:57;;;;;;;2.35;0.75;;;;;;;;;;5039974;28;20328;-92
2023/08/08 14:21:22;;;;;;;1.08;1.00;;;;;;;;;;5044087;28;20135;-86
2023/08/08 14:23:48;;;;;;;1.80;0.70;;;;;;;;;;5036865;28;20070;-93
2023/08/08 14:26:13;;;;;;;1.20;1.00;;;;;;;;;;5024282;28;20041;-83
2023/08/08 14:28:38;;;;;;;1.07;0.90;;;;;;;;;;5027939;28;20792;-83
2023/08/08 14:31:06;;;;;;;1.42;0.90;;;;;;;;;;5039835;28;20358;-83
2023/08/08 14:33:31;;;;;;;0.80;0.80;;;;;;;;;;5043350;28;20020;-90